Time;durP1;ratioP1;P1;durP2;ratioP2;P2;SDS_P1;SDS_P2;PMS_P1;PMS_P2;Temp;Humidity;BMP_temperature;BMP_pressure;BME280_temperature;BME280_humidity;BME280_pressure;Samples;Min_cycle;Max_cycle;Signal;HPM_P1;HPM_P2
2021/06/27 00:01:41;;;;;;;15.33;13.93;;;19.60;99.90;;;;;;5044617;28;20248;-43
2021/06/27 00:04:08;;;;;;;15.23;13.60;;;19.50;99.90;;;;;;5044986;28;21210;-45
2021/06/27 00:06:34;;;;;;;15.30;13.57;;;19.50;99.90;;;;;;5046150;28;20190;-43
2021/06/27 00:09:00;;;;;;;15.57;13.97;;;19.50;99.90;;;;;;5045643;28;20455;-43
2021/06/27 00:11:25;;;;;;;15.13;13.70;;;19.50;99.90;;;;;;5037311;28;20277;-44
2021/06/27 00:13:52;;;;;;;15.00;13.60;;;19.40;99.90;;;;;;5042511;28;20273;-45
2021/06/27 00:16:20;;;;;;;14.97;13.20;;;19.40;99.90;;;;;;5045766;28;20228;-43
2021/06/27 00:18:46;;;;;;;15.13;13.53;;;19.40;99.90;;;;;;5045432;28;20495;-41
2021/06/27 00:21:13;;;;;;;15.67;14.07;;;19.40;99.90;;;;;;5045833;28;20424;-43
2021/06/27 00:23:43;;;;;;;16.63;15.03;;;19.40;99.90;;;;;;5045143;28;20412;-47
2021/06/27 00:26:11;;;;;;;14.60;13.30;;;19.40;99.90;;;;;;5041025;28;20460;-44
2021/06/27 00:28:38;;;;;;;15.50;14.00;;;19.50;99.90;;;;;;5037867;28;20420;-43
2021/06/27 00:31:04;;;;;;;16.17;14.60;;;19.40;99.90;;;;;;5045457;28;20854;-42
2021/06/27 00:33:30;;;;;;;17.07;14.87;;;19.40;99.90;;;;;;5045123;28;20466;-45
2021/06/27 00:35:56;;;;;;;16.70;15.13;;;19.40;99.90;;;;;;5045282;28;21057;-41
2021/06/27 00:38:24;;;;;;;16.30;14.80;;;19.40;99.90;;;;;;5048502;28;20413;-46
2021/06/27 00:40:50;;;;;;;15.20;13.70;;;19.40;99.90;;;;;;5049634;28;20416;-41
2021/06/27 00:43:16;;;;;;;15.67;14.13;;;19.50;99.90;;;;;;5039130;28;20440;-42
2021/06/27 00:45:43;;;;;;;14.47;13.07;;;19.40;99.90;;;;;;5048747;28;20689;-43
2021/06/27 00:48:09;;;;;;;15.87;14.27;;;19.30;99.90;;;;;;5049425;28;20424;-44
2021/06/27 00:50:40;;;;;;;14.07;12.80;;;19.30;99.90;;;;;;5049349;28;20764;-42
2021/06/27 00:53:07;;;;;;;17.73;12.93;;;19.20;99.90;;;;;;5048554;28;20463;-42
2021/06/27 00:55:33;;;;;;;14.83;13.47;;;19.20;99.90;;;;;;5049144;28;20970;-45
2021/06/27 00:57:59;;;;;;;14.40;13.10;;;19.10;99.90;;;;;;5038368;28;20463;-44
2021/06/27 01:00:29;;;;;;;14.20;12.97;;;19.10;99.90;;;;;;5048670;28;20425;-43
2021/06/27 01:02:56;;;;;;;14.67;13.23;;;19.20;99.90;;;;;;5048615;28;20426;-41
2021/06/27 01:05:25;;;;;;;15.60;14.10;;;19.10;99.90;;;;;;5048751;28;20450;-46
2021/06/27 01:07:51;;;;;;;13.67;12.40;;;19.10;99.90;;;;;;5047477;28;20432;-45
2021/06/27 01:10:17;;;;;;;13.40;12.20;;;19.10;99.90;;;;;;5049048;28;20432;-41
2021/06/27 01:12:44;;;;;;;13.63;12.43;;;19.10;99.90;;;;;;5040888;28;20515;-46
2021/06/27 01:15:11;;;;;;;14.00;12.70;;;19.10;99.90;;;;;;5046743;28;20182;-42
2021/06/27 01:17:44;;;;;;;14.17;12.40;;;19.00;99.90;;;;;;5047340;28;20422;-42
2021/06/27 01:20:13;;;;;;;12.40;11.30;;;19.00;99.90;;;;;;5048914;28;20423;-42
2021/06/27 01:22:40;;;;;;;14.40;12.90;;;19.00;99.90;;;;;;5049171;28;20456;-41
2021/06/27 01:25:08;;;;;;;18.37;12.70;;;19.00;99.90;;;;;;5048501;28;20424;-41
2021/06/27 01:27:33;;;;;;;13.40;12.17;;;19.00;99.90;;;;;;5037538;28;20473;-44
2021/06/27 01:29:59;;;;;;;13.30;12.20;;;19.10;99.90;;;;;;5048609;28;20459;-43
2021/06/27 01:32:25;;;;;;;12.57;11.47;;;19.10;99.90;;;;;;5048272;28;20209;-41
2021/06/27 01:34:51;;;;;;;12.57;11.17;;;19.10;99.90;;;;;;5047751;28;20229;-44
2021/06/27 01:37:17;;;;;;;11.67;10.47;;;19.10;99.90;;;;;;5048415;28;20839;-43
2021/06/27 01:39:44;;;;;;;11.53;10.53;;;19.00;99.90;;;;;;5048369;28;20454;-41
2021/06/27 01:42:09;;;;;;;11.80;10.80;;;19.00;99.90;;;;;;5040177;28;20194;-43
2021/06/27 01:44:35;;;;;;;12.53;11.23;;;19.00;99.90;;;;;;5043399;28;20466;-42
2021/06/27 01:47:02;;;;;;;12.87;11.70;;;19.00;99.90;;;;;;5048024;28;20193;-42
2021/06/27 01:49:27;;;;;;;12.50;11.40;;;19.00;99.90;;;;;;5047185;28;20473;-45
2021/06/27 01:51:53;;;;;;;13.37;11.97;;;18.90;99.90;;;;;;5048315;28;20459;-42
2021/06/27 01:54:20;;;;;;;11.87;10.83;;;19.00;99.90;;;;;;5046196;28;20185;-42
2021/06/27 01:56:46;;;;;;;11.97;10.87;;;19.00;99.90;;;;;;5046230;28;20486;-46
2021/06/27 01:59:13;;;;;;;12.23;11.13;;;18.90;99.90;;;;;;5035575;28;20412;-41
2021/06/27 02:01:40;;;;;;;12.10;10.97;;;18.90;99.90;;;;;;5048041;28;20231;-42
2021/06/27 02:04:07;;;;;;;12.40;11.27;;;18.80;99.90;;;;;;5047095;28;20813;-43
2021/06/27 02:06:43;;;;;;;12.20;11.10;;;18.80;99.90;;;;;;5046910;28;20423;-43
2021/06/27 02:09:12;;;;;;;12.50;11.30;;;18.80;99.90;;;;;;5047304;28;20934;-43
2021/06/27 02:11:38;;;;;;;12.53;11.40;;;18.70;99.90;;;;;;5047804;28;20431;-42
2021/06/27 02:14:05;;;;;;;12.17;11.07;;;18.70;99.90;;;;;;5033019;28;20435;-44
2021/06/27 02:16:30;;;;;;;12.63;11.23;;;18.60;99.90;;;;;;5047517;28;20425;-41
2021/06/27 02:18:56;;;;;;;10.80;9.80;;;18.60;99.90;;;;;;5046350;28;20424;-42
2021/06/27 02:21:32;;;;;;;12.73;11.63;;;18.60;99.90;;;;;;5047385;28;20503;-41
2021/06/27 02:23:58;;;;;;;12.80;11.70;;;18.50;99.90;;;;;;5046916;28;20190;-45
2021/06/27 02:26:25;;;;;;;13.80;12.60;;;18.50;99.90;;;;;;5047662;28;20424;-47
2021/06/27 02:28:51;;;;;;;12.47;11.20;;;18.50;99.90;;;;;;5038111;28;20834;-43
2021/06/27 02:31:17;;;;;;;12.50;11.30;;;18.50;99.90;;;;;;5047292;28;20421;-43
2021/06/27 02:33:43;;;;;;;12.37;11.27;;;18.50;99.90;;;;;;5046894;28;20483;-43
2021/06/27 02:36:10;;;;;;;13.07;11.87;;;18.50;99.90;;;;;;5046991;28;20915;-44
2021/06/27 02:38:36;;;;;;;14.27;12.77;;;18.50;99.90;;;;;;5034176;28;20420;-43
2021/06/27 02:41:03;;;;;;;14.30;12.90;;;18.50;99.90;;;;;;5047173;28;20438;-45
2021/06/27 02:43:29;;;;;;;14.43;12.53;;;18.50;99.90;;;;;;5040852;28;20400;-43
2021/06/27 02:45:54;;;;;;;14.40;12.63;;;18.40;99.90;;;;;;5046617;28;20950;-43
2021/06/27 02:48:20;;;;;;;13.30;12.00;;;18.40;99.90;;;;;;5044404;28;20224;-42
2021/06/27 02:50:46;;;;;;;15.13;13.73;;;18.30;99.90;;;;;;5046733;28;20285;-42
2021/06/27 02:53:12;;;;;;;13.47;12.17;;;18.30;99.90;;;;;;5046167;28;20232;-42
2021/06/27 02:55:38;;;;;;;13.20;11.80;;;18.30;99.90;;;;;;5046711;28;20708;-43
2021/06/27 02:58:04;;;;;;;13.20;11.90;;;18.30;99.90;;;;;;5038304;28;20516;-43
2021/06/27 03:00:31;;;;;;;14.50;13.10;;;18.20;99.90;;;;;;5042982;28;20416;-41
2021/06/27 03:02:57;;;;;;;13.50;12.10;;;18.10;99.90;;;;;;5039551;28;20431;-46
2021/06/27 03:05:23;;;;;;;14.37;11.90;;;18.10;99.90;;;;;;5046248;28;20462;-43
2021/06/27 03:07:49;;;;;;;13.43;12.17;;;18.20;99.90;;;;;;5046844;28;20448;-46
2021/06/27 03:10:17;;;;;;;13.77;12.47;;;18.10;99.90;;;;;;5046740;28;20459;-43
2021/06/27 03:12:46;;;;;;;12.90;11.70;;;18.20;99.90;;;;;;5043376;28;20218;-44
2021/06/27 03:15:14;;;;;;;12.80;11.60;;;18.00;99.90;;;;;;5040956;28;20509;-42
2021/06/27 03:17:40;;;;;;;12.73;11.50;;;18.00;99.90;;;;;;5046214;28;20421;-43
2021/06/27 03:20:08;;;;;;;13.10;11.87;;;17.90;99.90;;;;;;5046295;28;20803;-41
2021/06/27 03:22:33;;;;;;;13.30;12.10;;;17.90;99.90;;;;;;5046319;28;20416;-47
2021/06/27 03:24:59;;;;;;;13.20;12.03;;;17.90;99.90;;;;;;5045927;28;20429;-42
2021/06/27 03:27:25;;;;;;;14.03;11.37;;;17.90;99.90;;;;;;5044799;28;20197;-44
2021/06/27 03:29:51;;;;;;;12.70;11.60;;;17.90;99.90;;;;;;5038660;28;20428;-43
2021/06/27 03:32:17;;;;;;;13.23;12.03;;;17.90;99.90;;;;;;5046411;28;20244;-44
2021/06/27 03:34:43;;;;;;;12.87;11.67;;;17.90;99.90;;;;;;5044573;28;20448;-42
2021/06/27 03:37:09;;;;;;;13.67;12.37;;;17.90;99.90;;;;;;5043355;28;20436;-43
2021/06/27 03:39:34;;;;;;;12.47;11.30;;;17.90;99.90;;;;;;5044980;28;20463;-41
2021/06/27 03:42:00;;;;;;;12.17;10.90;;;17.90;99.90;;;;;;5043883;28;20221;-44
2021/06/27 03:44:27;;;;;;;13.37;12.17;;;17.90;99.90;;;;;;5036241;28;20696;-42
2021/06/27 03:46:54;;;;;;;13.83;12.53;;;17.90;99.90;;;;;;5044538;28;20174;-43
2021/06/27 03:49:20;;;;;;;14.67;13.17;;;17.80;99.90;;;;;;5045651;28;20428;-42
2021/06/27 03:51:46;;;;;;;11.70;10.70;;;17.70;99.90;;;;;;5045118;28;20494;-40
2021/06/27 03:54:12;;;;;;;13.40;12.27;;;17.70;99.90;;;;;;5045405;28;20217;-42
2021/06/27 03:56:38;;;;;;;13.63;12.23;;;17.80;99.90;;;;;;5044954;28;20938;-43
2021/06/27 03:59:05;;;;;;;13.53;12.23;;;17.80;99.90;;;;;;5037537;28;20443;-41
2021/06/27 04:01:31;;;;;;;12.83;11.63;;;17.80;99.90;;;;;;5044550;28;20214;-41
2021/06/27 04:03:57;;;;;;;13.57;12.33;;;17.70;99.90;;;;;;5045398;28;20431;-43
2021/06/27 04:06:22;;;;;;;12.80;11.60;;;17.80;99.90;;;;;;5046041;28;20424;-41
2021/06/27 04:08:48;;;;;;;12.47;11.20;;;17.80;99.90;;;;;;5045977;28;20438;-44
2021/06/27 04:11:14;;;;;;;13.27;11.30;;;17.80;99.90;;;;;;5046289;28;20284;-43
2021/06/27 04:13:39;;;;;;;13.50;12.30;;;17.80;99.90;;;;;;5039246;28;20214;-43
2021/06/27 04:16:06;;;;;;;13.07;11.97;;;17.90;99.90;;;;;;5043143;28;20174;-41
2021/06/27 04:18:33;;;;;;;12.67;11.27;;;17.90;99.90;;;;;;5049545;28;20648;-41
2021/06/27 04:20:59;;;;;;;12.50;11.30;;;17.90;99.90;;;;;;5050063;28;20428;-41
2021/06/27 04:23:26;;;;;;;11.43;10.33;;;17.90;99.90;;;;;;5049294;28;20493;-42
2021/06/27 04:25:52;;;;;;;11.03;9.93;;;18.00;99.90;;;;;;5049949;28;20424;-43
2021/06/27 04:28:18;;;;;;;12.67;11.10;;;18.00;99.90;;;;;;5043477;28;20449;-43
2021/06/27 04:30:45;;;;;;;12.17;11.03;;;18.00;99.90;;;;;;5040593;28;20972;-42
2021/06/27 04:33:11;;;;;;;12.73;11.53;;;18.20;99.90;;;;;;5048839;28;20894;-44
2021/06/27 04:35:38;;;;;;;12.37;11.27;;;18.00;99.90;;;;;;5049451;28;20481;-46
2021/06/27 04:38:10;;;;;;;14.23;12.13;;;18.10;99.90;;;;;;5049705;28;20859;-42
2021/06/27 04:40:36;;;;;;;13.40;12.00;;;18.10;99.90;;;;;;5049794;28;20420;-44
2021/06/27 04:43:03;;;;;;;13.27;11.37;;;18.20;99.90;;;;;;5043446;28;20523;-44
2021/06/27 04:45:28;;;;;;;12.23;11.07;;;18.30;99.90;;;;;;5039962;28;20452;-41
2021/06/27 04:47:54;;;;;;;12.53;11.43;;;18.30;99.90;;;;;;5049306;28;20459;-41
2021/06/27 04:50:20;;;;;;;11.90;10.80;;;18.40;99.90;;;;;;5049566;28;20247;-42
2021/06/27 04:52:51;;;;;;;12.57;11.37;;;18.40;99.90;;;;;;5049012;28;20224;-42
2021/06/27 04:55:17;;;;;;;14.37;12.97;;;18.40;99.90;;;;;;5049084;28;20186;-44
2021/06/27 04:57:43;;;;;;;13.40;11.50;;;18.50;99.90;;;;;;5049135;28;20420;-42
2021/06/27 05:00:09;;;;;;;12.37;11.07;;;18.60;99.90;;;;;;5041822;28;20798;-40
2021/06/27 05:02:35;;;;;;;12.47;11.27;;;18.50;99.90;;;;;;5049007;28;20194;-42
2021/06/27 05:05:02;;;;;;;12.63;11.43;;;18.50;99.90;;;;;;5048405;28;20511;-41
2021/06/27 05:07:27;;;;;;;13.60;12.37;;;18.60;99.90;;;;;;5048650;28;20239;-45
2021/06/27 05:09:56;;;;;;;12.73;11.43;;;18.50;99.90;;;;;;5049100;28;20493;-44
2021/06/27 05:12:21;;;;;;;14.10;12.80;;;18.50;99.90;;;;;;5048322;28;20251;-46
2021/06/27 05:14:47;;;;;;;12.03;10.93;;;18.50;99.90;;;;;;5038522;28;20811;-45
2021/06/27 05:17:13;;;;;;;14.03;12.70;;;18.50;99.90;;;;;;5048305;28;20751;-42
2021/06/27 05:19:38;;;;;;;14.27;12.40;;;18.50;99.90;;;;;;5049119;28;20182;-41
2021/06/27 05:22:04;;;;;;;15.17;12.57;;;18.60;99.90;;;;;;5047639;28;20246;-44
2021/06/27 05:24:30;;;;;;;13.67;12.47;;;18.60;99.90;;;;;;5046757;28;20285;-44
2021/06/27 05:26:55;;;;;;;13.53;12.27;;;18.60;99.90;;;;;;5048359;28;20430;-44
2021/06/27 05:29:21;;;;;;;13.57;12.37;;;18.60;99.90;;;;;;5041401;28;20185;-42
2021/06/27 05:31:46;;;;;;;16.83;12.50;;;18.70;99.90;;;;;;5057824;28;20197;-45
2021/06/27 05:34:12;;;;;;;14.57;12.97;;;18.70;99.90;;;;;;5048080;28;20177;-44
2021/06/27 05:36:38;;;;;;;14.23;12.87;;;18.70;99.90;;;;;;5048286;28;20657;-46
2021/06/27 05:39:09;;;;;;;13.03;11.83;;;18.80;99.90;;;;;;5048923;28;20182;-43
2021/06/27 05:41:36;;;;;;;13.10;11.90;;;18.80;99.90;;;;;;5046630;28;20444;-41
2021/06/27 05:44:04;;;;;;;11.83;10.73;;;18.90;99.90;;;;;;5038211;28;20935;-43
2021/06/27 05:46:30;;;;;;;13.27;11.87;;;18.90;99.90;;;;;;5046270;28;20408;-42
2021/06/27 05:48:55;;;;;;;12.10;11.00;;;19.00;99.90;;;;;;5047908;28;20423;-42
2021/06/27 05:51:21;;;;;;;12.43;10.93;;;19.10;99.90;;;;;;5048013;28;20281;-41
2021/06/27 05:53:47;;;;;;;12.03;10.70;;;19.20;99.90;;;;;;5047299;28;20221;-43
2021/06/27 05:56:16;;;;;;;12.47;11.30;;;19.30;99.90;;;;;;5026763;28;20187;-41
2021/06/27 05:58:43;;;;;;;14.10;11.47;;;19.30;99.90;;;;;;5036846;28;20842;-43
2021/06/27 06:01:11;;;;;;;12.87;11.57;;;19.40;99.90;;;;;;5043471;28;20911;-47
2021/06/27 06:03:37;;;;;;;12.07;11.07;;;19.50;99.90;;;;;;5047074;28;20424;-42
2021/06/27 06:06:05;;;;;;;12.70;11.60;;;19.50;99.90;;;;;;5047800;28;20519;-46
2021/06/27 06:08:30;;;;;;;12.30;11.20;;;19.60;99.90;;;;;;5046166;28;20444;-46
2021/06/27 06:10:56;;;;;;;12.33;11.23;;;19.70;99.90;;;;;;5047853;28;20875;-45
2021/06/27 06:13:22;;;;;;;11.87;10.77;;;19.90;99.90;;;;;;5046078;28;20309;-47
2021/06/27 06:15:48;;;;;;;11.80;10.70;;;20.10;99.90;;;;;;5039032;28;20189;-41
2021/06/27 06:18:13;;;;;;;11.20;10.20;;;20.30;99.90;;;;;;5048013;28;20186;-43
2021/06/27 06:20:39;;;;;;;11.40;10.30;;;20.50;99.90;;;;;;5047609;28;20194;-43
2021/06/27 06:23:05;;;;;;;11.23;10.10;;;20.60;99.90;;;;;;5046900;28;20190;-43
2021/06/27 06:25:31;;;;;;;10.73;9.83;;;20.80;99.90;;;;;;5047439;28;20196;-41
2021/06/27 06:27:56;;;;;;;11.57;10.47;;;21.00;99.90;;;;;;5047699;28;20427;-44
2021/06/27 06:30:22;;;;;;;10.57;9.67;;;21.10;99.90;;;;;;5036481;28;20205;-44
2021/06/27 06:32:48;;;;;;;10.80;9.70;;;21.20;99.90;;;;;;5045344;28;20224;-45
2021/06/27 06:35:14;;;;;;;11.13;10.13;;;21.30;99.90;;;;;;5045480;28;20535;-41
2021/06/27 06:37:39;;;;;;;11.30;10.13;;;21.40;99.90;;;;;;5047109;28;20217;-43
2021/06/27 06:40:06;;;;;;;11.73;10.63;;;21.60;99.90;;;;;;5046987;28;20212;-45
2021/06/27 06:42:32;;;;;;;11.77;10.67;;;21.70;99.90;;;;;;5045893;28;20570;-45
2021/06/27 06:44:58;;;;;;;10.40;9.40;;;21.80;99.90;;;;;;5036360;28;20441;-43
2021/06/27 06:47:24;;;;;;;10.43;9.53;;;21.90;99.90;;;;;;5042696;28;20193;-42
2021/06/27 06:49:50;;;;;;;10.93;10.00;;;22.00;99.90;;;;;;5047094;28;20420;-43
2021/06/27 06:52:16;;;;;;;11.20;10.13;;;22.10;99.90;;;;;;5047228;28;20473;-43
2021/06/27 06:54:42;;;;;;;10.50;9.60;;;22.20;99.90;;;;;;5046314;28;20523;-43
2021/06/27 06:57:08;;;;;;;10.63;9.63;;;22.40;99.90;;;;;;5046893;28;20593;-46
2021/06/27 06:59:33;;;;;;;10.10;9.13;;;22.50;99.90;;;;;;5040626;28;20279;-43
2021/06/27 07:01:59;;;;;;;10.33;9.40;;;22.60;99.90;;;;;;5039343;28;20460;-48
2021/06/27 07:04:25;;;;;;;10.60;9.70;;;22.70;99.90;;;;;;5046332;28;20216;-42
2021/06/27 07:06:51;;;;;;;10.03;9.13;;;22.80;99.90;;;;;;5046325;28;20281;-43
2021/06/27 07:09:17;;;;;;;10.43;9.43;;;22.90;99.90;;;;;;5046506;28;20236;-42
2021/06/27 07:11:43;;;;;;;11.50;10.50;;;23.10;99.90;;;;;;5046535;28;20184;-47
2021/06/27 07:14:08;;;;;;;9.80;8.90;;;23.20;99.90;;;;;;5042056;28;20429;-45
2021/06/27 07:16:35;;;;;;;10.17;9.37;;;23.20;99.90;;;;;;5040918;28;20472;-45
2021/06/27 07:19:01;;;;;;;9.10;8.30;;;23.40;99.90;;;;;;5045586;28;20458;-41
2021/06/27 07:21:28;;;;;;;10.57;9.60;;;23.50;99.90;;;;;;5046377;28;20415;-44
2021/06/27 07:23:54;;;;;;;10.50;9.60;;;23.60;99.90;;;;;;5046343;28;20428;-45
2021/06/27 07:26:20;;;;;;;9.87;9.00;;;23.60;99.90;;;;;;5046543;28;20482;-43
2021/06/27 07:28:45;;;;;;;10.50;9.50;;;23.50;99.90;;;;;;5045092;28;20420;-40
2021/06/27 07:31:11;;;;;;;10.13;9.23;;;23.50;99.90;;;;;;5034391;28;20679;-45
2021/06/27 07:33:37;;;;;;;10.37;9.40;;;23.50;99.90;;;;;;5045453;28;20217;-47
2021/06/27 07:36:04;;;;;;;10.10;9.20;;;23.50;99.90;;;;;;5046795;28;20420;-45
2021/06/27 07:38:30;;;;;;;10.07;9.10;;;23.50;99.90;;;;;;5046333;28;20416;-43
2021/06/27 07:40:55;;;;;;;9.43;8.73;;;23.50;99.90;;;;;;5046631;28;20768;-45
2021/06/27 07:43:21;;;;;;;9.80;8.90;;;23.60;99.90;;;;;;5043804;28;20652;-44
2021/06/27 07:45:47;;;;;;;9.20;8.30;;;23.60;99.90;;;;;;5042040;28;20190;-45
2021/06/27 07:48:12;;;;;;;10.43;9.53;;;23.60;99.90;;;;;;5045613;28;20668;-42
2021/06/27 07:50:38;;;;;;;10.00;9.00;;;23.60;99.90;;;;;;5047757;28;20185;-42
2021/06/27 07:53:04;;;;;;;9.77;8.93;;;23.60;99.90;;;;;;5047039;28;20221;-44
2021/06/27 07:55:30;;;;;;;10.30;9.40;;;23.60;99.90;;;;;;5060291;28;20971;-44
2021/06/27 07:57:56;;;;;;;10.33;9.43;;;23.50;99.90;;;;;;5067778;28;20468;-45
2021/06/27 08:00:22;;;;;;;9.97;9.07;;;23.50;99.90;;;;;;5044760;28;20935;-47
2021/06/27 08:02:48;;;;;;;8.73;7.73;;;23.50;99.90;;;;;;5046062;28;20603;-44
2021/06/27 08:05:14;;;;;;;10.20;9.30;;;23.50;99.90;;;;;;5047690;28;20424;-48
2021/06/27 08:07:40;;;;;;;10.13;9.20;;;23.50;99.90;;;;;;5047694;28;20668;-41
2021/06/27 08:10:08;;;;;;;9.80;8.93;;;23.60;99.90;;;;;;5059948;28;20471;-42
2021/06/27 08:12:34;;;;;;;10.77;9.80;;;23.60;99.90;;;;;;5063386;28;20201;-45
2021/06/27 08:15:00;;;;;;;9.97;9.07;;;23.60;99.90;;;;;;5039715;28;20429;-45
2021/06/27 08:17:25;;;;;;;10.57;9.63;;;23.50;99.90;;;;;;5051567;28;20432;-45
2021/06/27 08:19:51;;;;;;;10.00;9.00;;;23.60;99.90;;;;;;5045656;28;20170;-44
2021/06/27 08:22:17;;;;;;;9.83;9.00;;;23.70;99.90;;;;;;5047998;28;20189;-43
2021/06/27 08:24:43;;;;;;;10.20;9.20;;;23.80;99.90;;;;;;5047104;28;20273;-45
2021/06/27 08:27:09;;;;;;;9.70;8.90;;;23.90;99.90;;;;;;5047818;28;20249;-43
2021/06/27 08:29:36;;;;;;;10.47;9.57;;;23.90;99.90;;;;;;5044913;28;20429;-43
2021/06/27 08:32:03;;;;;;;9.70;8.90;;;24.00;99.90;;;;;;5045560;28;20521;-46
2021/06/27 08:34:29;;;;;;;10.50;9.27;;;24.10;99.90;;;;;;5045357;28;20416;-43
2021/06/27 08:36:55;;;;;;;10.33;9.50;;;24.10;99.90;;;;;;5044524;28;20460;-41
2021/06/27 08:39:21;;;;;;;10.20;9.30;;;24.20;99.90;;;;;;5040633;28;20427;-41
2021/06/27 08:41:48;;;;;;;9.47;8.77;;;24.30;99.90;;;;;;5047838;28;20432;-41
2021/06/27 08:44:14;;;;;;;10.10;9.20;;;24.30;99.90;;;;;;5057743;28;21194;-45
2021/06/27 08:46:43;;;;;;;11.20;10.10;;;24.30;99.90;;;;;;5036583;28;20436;-44
2021/06/27 08:49:11;;;;;;;9.83;9.03;;;24.40;99.90;;;;;;5044398;28;20186;-43
2021/06/27 08:51:41;;;;;;;9.53;8.73;;;24.40;99.90;;;;;;5048313;28;20420;-42
2021/06/27 08:54:08;;;;;;;10.10;9.30;;;24.50;99.90;;;;;;5046632;28;20417;-45
2021/06/27 08:56:35;;;;;;;9.80;9.00;;;24.50;99.90;;;;;;5034071;28;20443;-44
2021/06/27 08:59:01;;;;;;;9.70;8.90;;;24.60;99.90;;;;;;5049412;28;20405;-43
2021/06/27 09:01:27;;;;;;;9.40;8.60;;;24.70;99.90;;;;;;5040648;28;20457;-45
2021/06/27 09:03:55;;;;;;;9.80;9.00;;;24.80;99.90;;;;;;5050460;28;20193;-41
2021/06/27 09:06:36;;;;;;;10.60;9.70;;;24.80;99.90;;;;;;5050875;28;20188;-41
2021/06/27 09:09:22;;;;;;;9.43;8.73;;;25.00;99.90;;;;;;5050748;28;20793;-41
2021/06/27 09:12:05;;;;;;;9.40;8.57;;;25.00;99.90;;;;;;5050547;28;20424;-43
2021/06/27 09:14:42;;;;;;;9.80;9.00;;;25.10;99.90;;;;;;5049543;28;20416;-41
2021/06/27 09:17:09;;;;;;;9.80;9.00;;;25.10;99.90;;;;;;5042844;28;20412;-41
2021/06/27 09:20:02;;;;;;;9.13;8.33;;;25.10;99.90;;;;;;5050703;28;20412;-41
2021/06/27 09:22:29;;;;;;;9.90;9.03;;;25.10;99.90;;;;;;5043637;28;20427;-42
2021/06/27 09:25:22;;;;;;;9.53;8.70;;;25.10;99.90;;;;;;5064060;28;20973;-41
2021/06/27 09:28:07;;;;;;;9.90;9.00;;;25.10;99.90;;;;;;5069316;28;20431;-42
2021/06/27 09:30:46;;;;;;;9.50;8.60;;;25.20;99.90;;;;;;5054082;28;20522;-41
2021/06/27 09:33:14;;;;;;;9.33;8.57;;;25.10;99.90;;;;;;5044775;28;20466;-46
2021/06/27 09:35:41;;;;;;;9.73;8.93;;;25.10;99.90;;;;;;5050089;28;20470;-44
2021/06/27 09:38:20;;;;;;;10.50;9.50;;;25.00;99.90;;;;;;5050169;28;20771;-43
2021/06/27 09:40:48;;;;;;;10.47;9.50;;;25.10;99.90;;;;;;5048915;28;20442;-40
2021/06/27 09:43:13;;;;;;;10.27;9.37;;;25.10;99.90;;;;;;5047478;28;20408;-41
2021/06/27 09:45:57;;;;;;;9.00;8.30;;;25.10;99.90;;;;;;5046754;28;20953;-44
2021/06/27 09:48:24;;;;;;;9.20;8.40;;;25.10;99.90;;;;;;5049274;28;20184;-43
2021/06/27 09:50:51;;;;;;;9.80;9.00;;;25.20;99.90;;;;;;5050061;28;20408;-40
2021/06/27 09:53:38;;;;;;;10.23;9.13;;;25.30;99.90;;;;;;5049185;28;20448;-43
2021/06/27 09:56:05;;;;;;;10.20;9.40;;;25.50;99.90;;;;;;5050021;28;20417;-42
2021/06/27 09:58:31;;;;;;;9.40;8.50;;;25.50;99.90;;;;;;5048577;28;20860;-43
2021/06/27 10:00:57;;;;;;;9.70;8.80;;;25.60;99.80;;;;;;5044312;28;20428;-41
2021/06/27 10:03:51;;;;;;;9.43;8.73;;;25.70;99.60;;;;;;5043988;28;20186;-42
2021/06/27 10:06:17;;;;;;;9.47;8.67;;;25.80;99.20;;;;;;5045370;28;20423;-41
2021/06/27 10:08:43;;;;;;;10.33;9.43;;;25.80;98.60;;;;;;5046433;28;20439;-42
2021/06/27 10:11:16;;;;;;;9.10;8.30;;;25.90;99.60;;;;;;5045993;28;20428;-42
2021/06/27 10:13:43;;;;;;;9.87;9.10;;;25.90;99.90;;;;;;5046844;28;20367;-41
2021/06/27 10:16:21;;;;;;;9.23;8.53;;;26.00;99.20;;;;;;5043635;28;20781;-42
2021/06/27 10:18:47;;;;;;;9.03;8.33;;;26.20;98.50;;;;;;5045831;28;20970;-41
2021/06/27 10:21:13;;;;;;;9.30;8.60;;;26.20;98.80;;;;;;5047880;28;20420;-42
2021/06/27 10:23:40;;;;;;;8.80;8.00;;;26.20;99.90;;;;;;5046781;28;20431;-42
2021/06/27 10:26:06;;;;;;;9.20;8.50;;;26.40;99.90;;;;;;5047646;28;20786;-41
2021/06/27 10:28:33;;;;;;;8.70;8.00;;;26.50;99.90;;;;;;5047469;28;20424;-40
2021/06/27 10:30:59;;;;;;;9.03;8.33;;;26.60;99.60;;;;;;5039243;28;20263;-41
2021/06/27 10:33:26;;;;;;;9.97;9.07;;;26.70;99.00;;;;;;5043012;28;20514;-39
2021/06/27 10:35:52;;;;;;;9.83;8.93;;;26.80;99.40;;;;;;5048876;28;20899;-41
2021/06/27 10:38:25;;;;;;;9.07;8.37;;;26.90;99.00;;;;;;5047762;28;20420;-40
2021/06/27 10:40:57;;;;;;;8.90;8.20;;;27.00;97.50;;;;;;5046921;28;20417;-41
2021/06/27 10:43:23;;;;;;;9.57;8.70;;;27.00;97.50;;;;;;5043622;28;20939;-43
2021/06/27 10:45:49;;;;;;;9.23;8.53;;;27.00;98.20;;;;;;5042038;28;20452;-41
2021/06/27 10:48:33;;;;;;;9.53;8.50;;;27.10;98.30;;;;;;5043845;28;20819;-42
2021/06/27 10:51:00;;;;;;;8.33;7.73;;;27.10;96.50;;;;;;5042936;28;20930;-40
2021/06/27 10:53:26;;;;;;;9.37;8.60;;;27.00;96.80;;;;;;5045996;28;20499;-42
2021/06/27 10:55:59;;;;;;;8.93;8.13;;;27.00;96.60;;;;;;5046760;28;20444;-42
2021/06/27 10:58:38;;;;;;;8.90;8.20;;;26.90;96.10;;;;;;5047290;28;20423;-41
2021/06/27 11:01:11;;;;;;;8.30;7.60;;;27.00;98.00;;;;;;5040883;28;20436;-41
2021/06/27 11:03:38;;;;;;;8.37;7.50;;;27.00;97.00;;;;;;5043556;28;20801;-40
2021/06/27 11:06:24;;;;;;;8.20;7.60;;;27.10;97.40;;;;;;5046696;28;20432;-39
2021/06/27 11:08:55;;;;;;;8.67;8.00;;;27.10;96.70;;;;;;5049024;28;20462;-41
2021/06/27 11:11:23;;;;;;;8.93;8.23;;;27.00;96.50;;;;;;5046708;28;20446;-41
2021/06/27 11:14:08;;;;;;;8.80;8.10;;;26.90;96.80;;;;;;5045979;28;20451;-41
2021/06/27 11:17:05;;;;;;;8.77;7.93;;;26.90;96.90;;;;;;5036661;28;20437;-41
2021/06/27 11:19:40;;;;;;;8.80;8.10;;;26.80;96.90;;;;;;5043520;28;20832;-41
2021/06/27 11:22:38;;;;;;;9.47;8.77;;;26.90;96.20;;;;;;5042772;28;20427;-40
2021/06/27 11:25:04;;;;;;;8.50;7.90;;;27.00;97.10;;;;;;5045655;28;20490;-40
2021/06/27 11:27:35;;;;;;;7.93;7.33;;;27.00;95.10;;;;;;5046428;28;20759;-40
2021/06/27 11:30:29;;;;;;;8.47;7.77;;;27.10;96.10;;;;;;5045313;28;20420;-41
2021/06/27 11:32:56;;;;;;;8.60;7.90;;;27.30;97.30;;;;;;5037982;28;20471;-40
2021/06/27 11:35:54;;;;;;;8.10;7.30;;;27.40;96.30;;;;;;5046023;28;20704;-40
2021/06/27 11:38:38;;;;;;;7.97;7.37;;;27.40;96.10;;;;;;5049399;28;20420;-40
2021/06/27 11:41:10;;;;;;;7.93;7.33;;;27.30;96.60;;;;;;5046340;28;20509;-41
2021/06/27 11:44:04;;;;;;;7.97;7.37;;;27.40;95.40;;;;;;5043975;28;20697;-40
2021/06/27 11:46:34;;;;;;;9.00;8.30;;;27.40;95.60;;;;;;5038499;28;20444;-40
2021/06/27 11:49:03;;;;;;;8.03;7.43;;;27.60;96.40;;;;;;5044281;28;20466;-39
2021/06/27 11:51:42;;;;;;;8.27;7.67;;;27.60;94.90;;;;;;5045013;28;20445;-40
2021/06/27 11:54:10;;;;;;;8.77;8.07;;;27.40;94.40;;;;;;5045600;28;20846;-39
2021/06/27 11:56:58;;;;;;;8.27;7.63;;;27.30;95.20;;;;;;5032136;28;20452;-40
2021/06/27 11:59:26;;;;;;;8.40;7.70;;;27.30;95.00;;;;;;5047675;28;20504;-42
2021/06/27 12:02:08;;;;;;;8.53;7.83;;;27.40;95.80;;;;;;5037800;28;20431;-40
2021/06/27 12:04:52;;;;;;;8.50;7.80;;;27.50;96.30;;;;;;5044823;28;20451;-44
2021/06/27 12:07:39;;;;;;;7.90;7.30;;;27.30;95.30;;;;;;5046063;28;20416;-41
2021/06/27 12:10:23;;;;;;;8.97;8.27;;;27.10;95.80;;;;;;5045402;28;20428;-41
2021/06/27 12:12:52;;;;;;;7.33;6.73;;;27.00;95.50;;;;;;5045891;28;20484;-42
2021/06/27 12:15:17;;;;;;;7.63;7.07;;;26.90;95.20;;;;;;5045252;28;20420;-43
2021/06/27 12:17:44;;;;;;;7.73;7.17;;;26.90;96.20;;;;;;5033090;28;20486;-39
2021/06/27 12:20:14;;;;;;;8.00;7.40;;;27.00;97.30;;;;;;5044397;28;20783;-40
2021/06/27 12:22:51;;;;;;;7.90;7.27;;;27.10;94.60;;;;;;5044665;28;20833;-41
2021/06/27 12:25:28;;;;;;;7.73;7.13;;;27.30;94.90;;;;;;5045847;28;20782;-40
2021/06/27 12:27:56;;;;;;;7.17;6.60;;;27.50;96.00;;;;;;5045332;28;20428;-41
2021/06/27 12:30:39;;;;;;;7.87;7.17;;;27.70;95.10;;;;;;5065138;28;20451;-44
2021/06/27 12:33:07;;;;;;;7.40;6.90;;;27.80;94.50;;;;;;5036836;28;20464;-40
2021/06/27 12:35:36;;;;;;;7.87;7.27;;;28.00;95.30;;;;;;5049816;28;20420;-40
2021/06/27 12:38:03;;;;;;;7.63;6.97;;;28.00;94.20;;;;;;5049237;28;20809;-41
2021/06/27 12:40:30;;;;;;;7.93;7.33;;;27.90;93.40;;;;;;5048821;28;20424;-43
2021/06/27 12:42:57;;;;;;;7.23;6.63;;;27.90;94.00;;;;;;5047833;28;20428;-41